Time;durP1;ratioP1;P1;durP2;ratioP2;P2;SDS_P1;SDS_P2;PMS_P1;PMS_P2;Temp;Humidity;BMP_temperature;BMP_pressure;BME280_temperature;BME280_humidity;BME280_pressure;Samples;Min_cycle;Max_cycle;Signal;HPM_P1;HPM_P2
2022/02/25 00:02:00;;;;;;;20.17;5.97;;;;;;;;;;5023240;28;20579;-79
2022/02/25 00:04:26;;;;;;;27.05;6.10;;;;;;;;;;5026332;28;20048;-79
2022/02/25 00:06:52;;;;;;;17.17;4.13;;;;;;;;;;5023835;28;20033;-79
2022/02/25 00:09:19;;;;;;;10.40;3.03;;;;;;;;;;5023824;28;20457;-78
2022/02/25 00:11:45;;;;;;;9.75;2.35;;;;;;;;;;5025939;28;20041;-79
2022/02/25 00:14:11;;;;;;;10.35;2.83;;;;;;;;;;5021615;28;20037;-79
2022/02/25 00:16:37;;;;;;;10.00;2.25;;;;;;;;;;5022534;28;20399;-78
2022/02/25 00:19:03;;;;;;;10.38;2.95;;;;;;;;;;5024346;28;20479;-79
2022/02/25 00:21:29;;;;;;;10.57;3.25;;;;;;;;;;5005814;28;20124;-79
2022/02/25 00:23:55;;;;;;;10.30;2.25;;;;;;;;;;5024482;28;20036;-78
2022/02/25 00:26:21;;;;;;;11.48;1.98;;;;;;;;;;5026777;28;20042;-78
2022/02/25 00:28:47;;;;;;;7.20;2.15;;;;;;;;;;5024732;28;20060;-79
2022/02/25 00:31:13;;;;;;;13.13;2.97;;;;;;;;;;5023470;28;20029;-79
2022/02/25 00:33:39;;;;;;;12.35;3.88;;;;;;;;;;5026488;28;20046;-79
2022/02/25 00:36:05;;;;;;;11.15;2.85;;;;;;;;;;5024880;28;20033;-79
2022/02/25 00:38:31;;;;;;;9.82;2.42;;;;;;;;;;5025199;28;20053;-79
2022/02/25 00:40:57;;;;;;;10.15;2.72;;;;;;;;;;5010528;28;20604;-79
2022/02/25 00:43:23;;;;;;;15.00;3.67;;;;;;;;;;5024144;28;20056;-79
2022/02/25 00:45:49;;;;;;;14.10;4.45;;;;;;;;;;5011842;28;20041;-79
2022/02/25 00:48:15;;;;;;;9.50;2.15;;;;;;;;;;5025103;28;20095;-79
2022/02/25 00:50:41;;;;;;;8.02;2.78;;;;;;;;;;5006518;28;20048;-79
2022/02/25 00:53:07;;;;;;;15.77;2.72;;;;;;;;;;5007222;28;20080;-79
2022/02/25 00:55:33;;;;;;;8.73;2.15;;;;;;;;;;5007547;28;20037;-79
2022/02/25 00:57:59;;;;;;;12.18;2.28;;;;;;;;;;5020646;28;20080;-79
2022/02/25 01:00:26;;;;;;;11.20;3.90;;;;;;;;;;5018101;28;20038;-79
2022/02/25 01:02:52;;;;;;;11.93;3.08;;;;;;;;;;5026021;28;20407;-79
2022/02/25 01:05:18;;;;;;;8.40;2.67;;;;;;;;;;5025495;28;20069;-79
2022/02/25 01:07:44;;;;;;;8.80;1.80;;;;;;;;;;5005857;28;20044;-79
2022/02/25 01:10:12;;;;;;;10.32;1.90;;;;;;;;;;5023242;28;20044;-78
2022/02/25 01:12:38;;;;;;;9.52;1.77;;;;;;;;;;5002460;28;20510;-79
2022/02/25 01:15:05;;;;;;;8.50;1.70;;;;;;;;;;5026291;28;20041;-78
2022/02/25 01:17:31;;;;;;;12.32;2.80;;;;;;;;;;5025179;28;20103;-79
2022/02/25 01:19:57;;;;;;;11.80;1.95;;;;;;;;;;5004689;28;20064;-79
2022/02/25 01:22:24;;;;;;;8.15;1.70;;;;;;;;;;5021509;28;20041;-79
2022/02/25 01:24:50;;;;;;;11.52;1.90;;;;;;;;;;5039329;28;20044;-79
2022/02/25 01:27:16;;;;;;;13.55;1.92;;;;;;;;;;5026397;28;20041;-78
2022/02/25 01:29:42;;;;;;;7.20;1.85;;;;;;;;;;5021980;28;20049;-79
2022/02/25 01:32:08;;;;;;;11.25;1.83;;;;;;;;;;5011679;28;20041;-78
2022/02/25 01:34:34;;;;;;;8.43;2.08;;;;;;;;;;5026985;28;20037;-79
2022/02/25 01:37:00;;;;;;;6.55;1.88;;;;;;;;;;5026163;28;20057;-78
2022/02/25 01:39:26;;;;;;;8.55;1.52;;;;;;;;;;5024976;28;20060;-78
2022/02/25 01:41:52;;;;;;;8.88;1.65;;;;;;;;;;5026817;28;20057;-78
2022/02/25 01:44:23;;;;;;;8.10;1.58;;;;;;;;;;5026489;28;20152;-78
2022/02/25 01:46:56;;;;;;;8.38;1.73;;;;;;;;;;5025681;28;20479;-78
2022/02/25 01:49:23;;;;;;;10.10;2.08;;;;;;;;;;5033313;28;20727;-79
2022/02/25 01:51:52;;;;;;;7.68;1.95;;;;;;;;;;5029109;28;20042;-78
2022/02/25 01:54:18;;;;;;;9.30;1.63;;;;;;;;;;5025802;28;20045;-79
2022/02/25 01:56:44;;;;;;;12.13;1.75;;;;;;;;;;5023187;28;20033;-79
2022/02/25 01:59:13;;;;;;;8.95;1.50;;;;;;;;;;5024769;28;20171;-78
2022/02/25 02:01:40;;;;;;;11.45;1.90;;;;;;;;;;5009181;28;20079;-79
2022/02/25 02:04:06;;;;;;;12.77;2.20;;;;;;;;;;5026481;28;20171;-78
2022/02/25 02:06:32;;;;;;;9.90;1.60;;;;;;;;;;5026814;28;20041;-78
2022/02/25 02:08:58;;;;;;;11.55;1.88;;;;;;;;;;5025455;28;20064;-79
2022/02/25 02:11:26;;;;;;;9.13;1.67;;;;;;;;;;5025776;28;20041;-78
2022/02/25 02:13:52;;;;;;;8.48;1.88;;;;;;;;;;5028084;28;20053;-78
2022/02/25 02:16:18;;;;;;;11.00;2.08;;;;;;;;;;5025275;28;20045;-79
2022/02/25 02:18:44;;;;;;;10.07;1.55;;;;;;;;;;5026646;28;20087;-78
2022/02/25 02:21:10;;;;;;;8.73;1.95;;;;;;;;;;5020891;28;20049;-78
2022/02/25 02:23:35;;;;;;;7.18;1.20;;;;;;;;;;5010503;28;20034;-78
2022/02/25 02:26:01;;;;;;;8.60;1.67;;;;;;;;;;5026507;28;20064;-78
2022/02/25 02:28:27;;;;;;;11.55;1.98;;;;;;;;;;5043117;28;20403;-78
2022/02/25 02:30:54;;;;;;;13.00;2.20;;;;;;;;;;5024578;28;20115;-79
2022/02/25 02:33:21;;;;;;;7.75;1.60;;;;;;;;;;5024086;28;20041;-78
2022/02/25 02:35:49;;;;;;;10.02;1.67;;;;;;;;;;5026524;28;20033;-78
2022/02/25 02:38:14;;;;;;;11.02;2.38;;;;;;;;;;5023838;28;20061;-79
2022/02/25 02:40:40;;;;;;;7.97;1.85;;;;;;;;;;5023075;28;20052;-79
2022/02/25 02:43:10;;;;;;;13.18;2.15;;;;;;;;;;5007887;28;20045;-78
2022/02/25 02:45:36;;;;;;;13.02;2.58;;;;;;;;;;5026192;28;20045;-79
2022/02/25 02:48:02;;;;;;;10.57;1.90;;;;;;;;;;5023994;28;20041;-78
2022/02/25 02:50:28;;;;;;;8.82;1.83;;;;;;;;;;5027637;28;20388;-79
2022/02/25 02:52:54;;;;;;;9.98;2.28;;;;;;;;;;5027797;28;20033;-79
2022/02/25 02:55:20;;;;;;;11.13;1.90;;;;;;;;;;5010923;28;20040;-79
2022/02/25 02:57:46;;;;;;;10.15;2.13;;;;;;;;;;5010978;28;20037;-79
2022/02/25 03:00:12;;;;;;;15.82;2.55;;;;;;;;;;5028268;28;20070;-79
2022/02/25 03:02:39;;;;;;;8.88;2.03;;;;;;;;;;5024619;28;20047;-79
2022/02/25 03:05:05;;;;;;;10.93;2.17;;;;;;;;;;5010699;28;20045;-79
2022/02/25 03:07:31;;;;;;;8.48;1.92;;;;;;;;;;5044647;28;20042;-79
2022/02/25 03:09:57;;;;;;;10.55;2.00;;;;;;;;;;5025403;28;20087;-79
2022/02/25 03:12:23;;;;;;;12.43;2.00;;;;;;;;;;5026881;28;20036;-78
2022/02/25 03:14:49;;;;;;;12.65;2.10;;;;;;;;;;5024491;28;20559;-79
2022/02/25 03:17:15;;;;;;;10.68;1.95;;;;;;;;;;5024399;28;20042;-79
2022/02/25 03:19:41;;;;;;;11.20;2.03;;;;;;;;;;5024645;28;20045;-79
2022/02/25 03:22:07;;;;;;;10.52;2.10;;;;;;;;;;5024216;28;20049;-79
2022/02/25 03:24:33;;;;;;;18.35;2.65;;;;;;;;;;5025274;28;20044;-79
2022/02/25 03:26:59;;;;;;;10.10;2.60;;;;;;;;;;5007702;28;20038;-79
2022/02/25 03:29:25;;;;;;;9.15;1.63;;;;;;;;;;5025567;28;20065;-79
2022/02/25 03:31:51;;;;;;;12.23;2.47;;;;;;;;;;5010206;28;20037;-79
2022/02/25 03:34:17;;;;;;;8.30;1.90;;;;;;;;;;5026864;28;20044;-79
2022/02/25 03:36:43;;;;;;;12.38;2.67;;;;;;;;;;5023998;28;20088;-79
2022/02/25 03:39:09;;;;;;;10.15;1.85;;;;;;;;;;5025602;28;20053;-79
2022/02/25 03:41:35;;;;;;;11.27;2.35;;;;;;;;;;5022112;28;20565;-79
2022/02/25 03:44:01;;;;;;;14.63;2.03;;;;;;;;;;5021579;28;20034;-78
2022/02/25 03:46:27;;;;;;;16.52;2.60;;;;;;;;;;5025500;28;20052;-78
2022/02/25 03:48:53;;;;;;;11.10;2.25;;;;;;;;;;5021792;28;20075;-79
2022/02/25 03:51:23;;;;;;;11.57;2.30;;;;;;;;;;5007619;28;20469;-78
2022/02/25 03:53:49;;;;;;;11.18;2.30;;;;;;;;;;5025877;28;20559;-79
2022/02/25 03:56:16;;;;;;;9.38;2.28;;;;;;;;;;5023495;28;20430;-79
2022/02/25 03:58:42;;;;;;;11.27;2.40;;;;;;;;;;5023266;28;20126;-79
2022/02/25 04:01:08;;;;;;;8.27;1.67;;;;;;;;;;5026963;28;20048;-79
2022/02/25 04:03:34;;;;;;;11.10;1.90;;;;;;;;;;5022067;28;20556;-79
2022/02/25 04:06:00;;;;;;;12.15;2.10;;;;;;;;;;5025030;28;20467;-78
2022/02/25 04:08:26;;;;;;;11.70;1.98;;;;;;;;;;5011150;28;20383;-78
2022/02/25 04:10:52;;;;;;;14.80;2.83;;;;;;;;;;5009402;28;20033;-78
2022/02/25 04:13:18;;;;;;;10.20;2.13;;;;;;;;;;5007996;28;20072;-78
2022/02/25 04:15:44;;;;;;;13.32;2.22;;;;;;;;;;5006542;28;20041;-79
2022/02/25 04:18:11;;;;;;;11.23;2.28;;;;;;;;;;5001946;28;20056;-79
2022/02/25 04:20:37;;;;;;;13.38;2.92;;;;;;;;;;5027037;28;20049;-79
2022/02/25 04:23:03;;;;;;;15.30;2.67;;;;;;;;;;5006344;28;20041;-79
2022/02/25 04:25:30;;;;;;;11.00;1.98;;;;;;;;;;5004950;28;20047;-79
2022/02/25 04:27:56;;;;;;;10.38;1.70;;;;;;;;;;5025324;28;20029;-79
2022/02/25 04:30:22;;;;;;;17.88;2.42;;;;;;;;;;5023450;28;20037;-79
2022/02/25 04:32:49;;;;;;;19.20;3.28;;;;;;;;;;5022295;28;20037;-79
2022/02/25 04:35:15;;;;;;;20.80;3.58;;;;;;;;;;5024535;28;20033;-79
2022/02/25 04:37:41;;;;;;;10.05;2.70;;;;;;;;;;5007876;28;20748;-79
2022/02/25 04:40:08;;;;;;;11.85;2.28;;;;;;;;;;5021107;28;20045;-79
2022/02/25 04:42:34;;;;;;;8.82;1.65;;;;;;;;;;5022022;28;20037;-79
2022/02/25 04:45:00;;;;;;;11.73;2.13;;;;;;;;;;5005392;28;20045;-79
2022/02/25 04:47:26;;;;;;;16.70;2.55;;;;;;;;;;5022896;28;20037;-79
2022/02/25 04:49:52;;;;;;;12.43;1.92;;;;;;;;;;5022936;28;20046;-79
2022/02/25 04:52:18;;;;;;;14.68;2.45;;;;;;;;;;5019785;28;20040;-78
2022/02/25 04:54:44;;;;;;;14.40;2.40;;;;;;;;;;5024472;28;20056;-79
2022/02/25 04:57:11;;;;;;;14.82;2.15;;;;;;;;;;5022880;28;20048;-79
2022/02/25 04:59:37;;;;;;;15.20;2.30;;;;;;;;;;5023705;28;20053;-79
2022/02/25 05:02:03;;;;;;;17.33;2.40;;;;;;;;;;5026434;28;20121;-79
2022/02/25 05:04:29;;;;;;;14.38;3.30;;;;;;;;;;5024415;28;20450;-79
2022/02/25 05:06:55;;;;;;;9.75;2.13;;;;;;;;;;5027744;28;20041;-78
2022/02/25 05:09:21;;;;;;;13.85;1.88;;;;;;;;;;5031840;28;20167;-79
2022/02/25 05:11:47;;;;;;;13.98;2.15;;;;;;;;;;5029409;28;20052;-79
2022/02/25 05:22:27;;;;;;;12.65;2.63;;;;;;;;;;5027194;28;20045;-79
2022/02/25 05:24:53;;;;;;;12.85;2.42;;;;;;;;;;5027397;28;20352;-79
2022/02/25 05:27:20;;;;;;;14.18;2.13;;;;;;;;;;5026644;28;20053;-79
2022/02/25 05:29:47;;;;;;;9.43;2.35;;;;;;;;;;5026846;28;20041;-79
2022/02/25 05:32:13;;;;;;;10.90;1.98;;;;;;;;;;5026508;28;20091;-79
2022/02/25 05:34:38;;;;;;;10.82;1.70;;;;;;;;;;5009955;28;20299;-79
2022/02/25 05:37:04;;;;;;;9.98;1.92;;;;;;;;;;5029120;28;20060;-79
2022/02/25 05:39:30;;;;;;;17.38;2.65;;;;;;;;;;5032902;28;20052;-79
2022/02/25 05:41:56;;;;;;;9.07;2.03;;;;;;;;;;5029100;28;20426;-79
2022/02/25 05:44:22;;;;;;;11.40;1.80;;;;;;;;;;5012966;28;20084;-79
2022/02/25 05:46:48;;;;;;;14.27;2.58;;;;;;;;;;5031668;28;20045;-79
2022/02/25 05:49:14;;;;;;;11.70;1.70;;;;;;;;;;5043109;28;20044;-79
2022/02/25 05:51:40;;;;;;;18.08;2.22;;;;;;;;;;5048890;23;20070;-85
2022/02/25 05:54:06;;;;;;;7.75;2.25;;;;;;;;;;5038866;28;20045;-85
2022/02/25 05:56:32;;;;;;;13.52;2.30;;;;;;;;;;5067619;28;20109;-85
2022/02/25 05:58:59;;;;;;;11.07;1.95;;;;;;;;;;5071081;28;20067;-85
2022/02/25 06:01:25;;;;;;;12.35;2.28;;;;;;;;;;5053070;28;20130;-85
2022/02/25 06:03:51;;;;;;;14.05;3.03;;;;;;;;;;5034608;28;20048;-85
2022/02/25 06:06:17;;;;;;;19.15;3.25;;;;;;;;;;5068589;28;20697;-85
2022/02/25 06:08:43;;;;;;;16.58;2.40;;;;;;;;;;5053826;28;20438;-85
2022/02/25 06:11:09;;;;;;;16.27;2.83;;;;;;;;;;5067886;28;20169;-85
2022/02/25 06:13:35;;;;;;;12.20;2.17;;;;;;;;;;5066948;28;20745;-85
2022/02/25 06:16:01;;;;;;;16.92;3.67;;;;;;;;;;5069254;28;20116;-85
2022/02/25 06:18:27;;;;;;;13.52;2.78;;;;;;;;;;5037556;28;20044;-85
2022/02/25 06:20:53;;;;;;;12.35;2.20;;;;;;;;;;5053632;28;20043;-85
2022/02/25 06:23:22;;;;;;;10.07;2.53;;;;;;;;;;5070119;28;20040;-86
2022/02/25 06:25:48;;;;;;;14.52;3.05;;;;;;;;;;5052124;28;20059;-86
2022/02/25 06:28:15;;;;;;;13.15;2.22;;;;;;;;;;5048427;28;20045;-86
2022/02/25 06:30:41;;;;;;;13.40;2.58;;;;;;;;;;5053410;28;20048;-86
2022/02/25 06:33:07;;;;;;;13.05;2.63;;;;;;;;;;5063549;28;20036;-86
2022/02/25 06:35:33;;;;;;;15.98;2.10;;;;;;;;;;5033954;28;20041;-86
2022/02/25 06:38:00;;;;;;;11.77;2.35;;;;;;;;;;5049747;28;20045;-86
2022/02/25 06:40:26;;;;;;;9.05;2.30;;;;;;;;;;5065529;28;20028;-86
2022/02/25 06:42:52;;;;;;;13.23;2.25;;;;;;;;;;5048226;28;20111;-86
2022/02/25 06:45:20;;;;;;;16.27;2.40;;;;;;;;;;5052386;28;20473;-86
2022/02/25 06:47:46;;;;;;;16.27;3.50;;;;;;;;;;5041129;28;20040;-87
2022/02/25 06:50:13;;;;;;;11.20;2.67;;;;;;;;;;5048776;28;20182;-86
2022/02/25 06:52:38;;;;;;;16.67;2.75;;;;;;;;;;5061562;28;20461;-87
2022/02/25 06:55:05;;;;;;;13.35;2.28;;;;;;;;;;5036379;28;20082;-87
2022/02/25 06:57:31;;;;;;;14.07;2.67;;;;;;;;;;5049682;28;21144;-87
2022/02/25 06:59:57;;;;;;;14.48;2.80;;;;;;;;;;5044849;28;20044;-87
2022/02/25 07:02:23;;;;;;;5.80;1.90;;;;;;;;;;5061278;28;20424;-87
2022/02/25 07:04:49;;;;;;;8.50;2.22;;;;;;;;;;5065125;28;20126;-87
2022/02/25 07:07:15;;;;;;;12.02;1.88;;;;;;;;;;5049784;28;20033;-87
2022/02/25 07:09:41;;;;;;;8.88;2.38;;;;;;;;;;5024163;28;20045;-88
2022/02/25 07:12:07;;;;;;;10.65;2.65;;;;;;;;;;5050603;28;20036;-87
2022/02/25 07:14:33;;;;;;;7.65;1.50;;;;;;;;;;5026345;28;20041;-87
2022/02/25 07:17:00;;;;;;;7.32;2.10;;;;;;;;;;5048091;28;20041;-87
2022/02/25 07:19:26;;;;;;;10.60;2.55;;;;;;;;;;5049843;28;20039;-87
2022/02/25 07:21:52;;;;;;;12.18;1.77;;;;;;;;;;5051416;28;20076;-87
2022/02/25 07:24:18;;;;;;;12.38;2.15;;;;;;;;;;5049084;28;20075;-87
2022/02/25 07:26:45;;;;;;;12.68;2.60;;;;;;;;;;5049205;28;20040;-87
2022/02/25 07:29:11;;;;;;;11.63;2.47;;;;;;;;;;5053713;28;20067;-87
2022/02/25 07:31:40;;;;;;;10.23;2.15;;;;;;;;;;5055425;28;20055;-87
2022/02/25 07:34:07;;;;;;;10.43;2.13;;;;;;;;;;5054925;28;20044;-87
2022/02/25 07:36:33;;;;;;;11.38;3.15;;;;;;;;;;5055871;28;20367;-87
2022/02/25 07:38:59;;;;;;;13.43;2.35;;;;;;;;;;5054023;28;20032;-87
2022/02/25 07:41:25;;;;;;;7.47;1.77;;;;;;;;;;5030051;28;20445;-87
2022/02/25 07:43:51;;;;;;;14.43;2.97;;;;;;;;;;5054880;28;20124;-87
2022/02/25 07:46:17;;;;;;;13.65;2.53;;;;;;;;;;5053307;28;20048;-87
2022/02/25 07:48:43;;;;;;;12.82;2.50;;;;;;;;;;5053183;28;20394;-87
2022/02/25 07:51:09;;;;;;;9.05;1.60;;;;;;;;;;5049287;28;20508;-87
2022/02/25 07:53:35;;;;;;;14.32;2.67;;;;;;;;;;5070417;28;20041;-87
2022/02/25 07:56:01;;;;;;;14.27;2.35;;;;;;;;;;5066911;28;20032;-87
2022/02/25 07:58:28;;;;;;;14.45;3.10;;;;;;;;;;5064343;28;20041;-88
2022/02/25 08:00:53;;;;;;;12.52;2.38;;;;;;;;;;5070406;28;20040;-88
2022/02/25 08:03:19;;;;;;;5.53;1.65;;;;;;;;;;5048976;28;20045;-87
2022/02/25 08:05:45;;;;;;;10.25;2.17;;;;;;;;;;5045900;28;20068;-87
2022/02/25 08:08:11;;;;;;;10.55;1.92;;;;;;;;;;5049220;28;20032;-87
2022/02/25 08:10:37;;;;;;;14.18;2.63;;;;;;;;;;5057886;28;20089;-87
2022/02/25 08:13:04;;;;;;;10.45;2.47;;;;;;;;;;5023494;28;20470;-87
2022/02/25 08:15:33;;;;;;;13.50;2.50;;;;;;;;;;5042293;28;20433;-86
2022/02/25 08:17:59;;;;;;;9.35;2.15;;;;;;;;;;5045294;28;20048;-87
2022/02/25 08:20:25;;;;;;;16.42;2.92;;;;;;;;;;5045804;28;20035;-86
2022/02/25 08:22:52;;;;;;;13.02;2.72;;;;;;;;;;5051111;28;20566;-85
2022/02/25 08:25:18;;;;;;;12.40;2.25;;;;;;;;;;5050848;28;20041;-85
2022/02/25 08:27:44;;;;;;;12.10;2.55;;;;;;;;;;5054359;28;21626;-85
2022/02/25 08:30:14;;;;;;;18.33;2.65;;;;;;;;;;5043626;28;20040;-85
2022/02/25 08:32:41;;;;;;;15.90;2.97;;;;;;;;;;5053488;28;20040;-85
2022/02/25 08:35:08;;;;;;;11.88;2.88;;;;;;;;;;5055918;28;20098;-86
2022/02/25 08:37:35;;;;;;;12.55;2.30;;;;;;;;;;5066579;28;20055;-86
2022/02/25 08:40:01;;;;;;;13.18;2.40;;;;;;;;;;5054805;28;20052;-86
2022/02/25 08:42:27;;;;;;;14.65;2.25;;;;;;;;;;5054518;28;20124;-85
2022/02/25 08:44:53;;;;;;;10.35;2.15;;;;;;;;;;5067692;28;20343;-85
2022/02/25 08:47:19;;;;;;;12.52;2.13;;;;;;;;;;5042399;28;20040;-85
2022/02/25 08:49:46;;;;;;;13.05;1.98;;;;;;;;;;5043968;28;20033;-85
2022/02/25 08:52:12;;;;;;;14.20;2.75;;;;;;;;;;5044154;28;20080;-85
2022/02/25 08:54:38;;;;;;;11.05;1.90;;;;;;;;;;5041861;28;20044;-85
2022/02/25 08:57:04;;;;;;;9.90;2.50;;;;;;;;;;5041300;28;20056;-85
2022/02/25 08:59:30;;;;;;;15.73;3.05;;;;;;;;;;5043868;28;20163;-83
2022/02/25 09:01:57;;;;;;;10.00;2.28;;;;;;;;;;5043187;28;20048;-84
2022/02/25 09:04:23;;;;;;;5.55;1.10;;;;;;;;;;5040643;28;20175;-84
2022/02/25 09:06:49;;;;;;;14.48;2.17;;;;;;;;;;5044043;28;20060;-85
2022/02/25 09:09:15;;;;;;;10.18;2.03;;;;;;;;;;5045849;28;20470;-85
2022/02/25 09:11:41;;;;;;;10.00;2.10;;;;;;;;;;5021566;28;20044;-85
2022/02/25 09:14:07;;;;;;;16.52;2.42;;;;;;;;;;5041149;28;20048;-85
2022/02/25 09:16:33;;;;;;;9.07;1.98;;;;;;;;;;5047981;28;20402;-85
2022/02/25 09:18:59;;;;;;;9.25;1.80;;;;;;;;;;5060217;28;20037;-85
2022/02/25 09:21:28;;;;;;;11.18;2.60;;;;;;;;;;5041564;28;20443;-85
2022/02/25 09:23:54;;;;;;;10.07;1.90;;;;;;;;;;5034473;28;20043;-86
2022/02/25 09:26:20;;;;;;;9.52;2.28;;;;;;;;;;5043555;28;20032;-85
2022/02/25 09:28:46;;;;;;;19.02;2.90;;;;;;;;;;5060573;28;20830;-87
2022/02/25 09:31:12;;;;;;;9.63;2.10;;;;;;;;;;5048963;28;20028;-87
2022/02/25 09:33:38;;;;;;;10.98;2.28;;;;;;;;;;5028540;28;20068;-87
2022/02/25 09:36:04;;;;;;;10.20;2.72;;;;;;;;;;5051667;28;20366;-86
2022/02/25 09:38:30;;;;;;;15.48;2.33;;;;;;;;;;5051528;28;20208;-86
2022/02/25 09:40:56;;;;;;;9.00;2.03;;;;;;;;;;5053821;28;20047;-86
2022/02/25 09:43:23;;;;;;;12.95;2.58;;;;;;;;;;5069408;28;20124;-86
2022/02/25 09:45:49;;;;;;;11.48;2.53;;;;;;;;;;5049015;28;20036;-86
2022/02/25 09:48:15;;;;;;;15.18;2.38;;;;;;;;;;5051155;28;20448;-86
2022/02/25 09:50:45;;;;;;;14.82;2.88;;;;;;;;;;5057286;28;20044;-86
2022/02/25 09:53:11;;;;;;;14.35;2.25;;;;;;;;;;5049990;28;20481;-87
2022/02/25 09:55:37;;;;;;;11.70;2.30;;;;;;;;;;5071443;28;20111;-86
2022/02/25 09:58:07;;;;;;;12.95;2.08;;;;;;;;;;5055599;28;20049;-87
2022/02/25 10:00:34;;;;;;;16.20;2.67;;;;;;;;;;5056148;28;20082;-86
2022/02/25 10:03:01;;;;;;;14.32;1.85;;;;;;;;;;5054234;28;20039;-86
2022/02/25 10:05:28;;;;;;;15.85;2.60;;;;;;;;;;5055987;28;20068;-86
2022/02/25 10:07:55;;;;;;;11.68;2.28;;;;;;;;;;5055711;28;20518;-85
2022/02/25 10:10:26;;;;;;;15.95;2.83;;;;;;;;;;5058666;28;20037;-86
2022/02/25 10:12:59;;;;;;;15.73;3.03;;;;;;;;;;5057057;28;20060;-85
2022/02/25 10:15:33;;;;;;;16.17;3.28;;;;;;;;;;5055066;28;20120;-84
2022/02/25 10:18:04;;;;;;;15.02;3.42;;;;;;;;;;5055143;28;20052;-84
2022/02/25 10:20:30;;;;;;;13.27;2.25;;;;;;;;;;5044690;28;20108;-84
2022/02/25 10:22:57;;;;;;;19.42;3.08;;;;;;;;;;5055062;28;20637;-85
2022/02/25 10:25:25;;;;;;;14.32;3.08;;;;;;;;;;5055979;28;20044;-85
2022/02/25 10:27:51;;;;;;;13.25;2.67;;;;;;;;;;5059221;28;20119;-84
2022/02/25 10:30:19;;;;;;;14.27;2.88;;;;;;;;;;5056203;28;20091;-84
2022/02/25 10:32:47;;;;;;;16.45;2.78;;;;;;;;;;5068266;28;20384;-84
2022/02/25 10:35:30;;;;;;;13.27;2.35;;;;;;;;;;5048562;28;20046;-84
2022/02/25 10:37:56;;;;;;;16.23;2.63;;;;;;;;;;5052158;28;20037;-84
2022/02/25 10:40:23;;;;;;;15.73;3.20;;;;;;;;;;5046810;28;20401;-84
2022/02/25 10:42:49;;;;;;;12.98;2.40;;;;;;;;;;5046093;28;20115;-86
2022/02/25 10:45:26;;;;;;;16.13;2.67;;;;;;;;;;5055976;28;20131;-86
2022/02/25 10:47:52;;;;;;;14.02;2.90;;;;;;;;;;5055979;28;20040;-86
2022/02/25 10:50:20;;;;;;;14.73;2.88;;;;;;;;;;5068750;28;20043;-86
2022/02/25 10:52:48;;;;;;;15.05;2.95;;;;;;;;;;5072192;28;20514;-86
2022/02/25 10:55:18;;;;;;;11.63;2.88;;;;;;;;;;5056150;28;20046;-88
2022/02/25 10:57:44;;;;;;;10.20;2.08;;;;;;;;;;5067986;28;20040;-82
2022/02/25 11:00:11;;;;;;;16.23;2.90;;;;;;;;;;5064994;28;20141;-83
2022/02/25 11:02:41;;;;;;;11.75;2.03;;;;;;;;;;5051166;28;20113;-83
2022/02/25 11:05:15;;;;;;;10.32;2.22;;;;;;;;;;5043959;28;20048;-83
2022/02/25 11:07:42;;;;;;;12.23;1.98;;;;;;;;;;5066535;28;20044;-82
2022/02/25 11:10:09;;;;;;;7.75;1.65;;;;;;;;;;5050416;28;20036;-82
2022/02/25 11:12:35;;;;;;;14.77;2.05;;;;;;;;;;5039039;28;20043;-82
2022/02/25 11:15:02;;;;;;;9.07;1.70;;;;;;;;;;5050793;28;20044;-82
2022/02/25 11:17:28;;;;;;;5.95;1.30;;;;;;;;;;5060918;28;20097;-82
2022/02/25 11:19:56;;;;;;;6.32;1.00;;;;;;;;;;5051418;28;20081;-82
2022/02/25 11:22:22;;;;;;;7.38;1.10;;;;;;;;;;5067900;28;20036;-81
2022/02/25 11:24:49;;;;;;;5.22;0.90;;;;;;;;;;5046075;28;20067;-81
2022/02/25 11:27:15;;;;;;;10.48;1.38;;;;;;;;;;5041215;28;20123;-82
2022/02/25 11:30:01;;;;;;;8.15;1.10;;;;;;;;;;5065442;28;20044;-81
2022/02/25 11:32:34;;;;;;;4.45;1.42;;;;;;;;;;5065080;28;20089;-81
2022/02/25 11:35:00;;;;;;;5.15;1.13;;;;;;;;;;5047912;28;20041;-82
2022/02/25 11:37:42;;;;;;;6.03;1.30;;;;;;;;;;5048286;28;20045;-81
2022/02/25 11:40:08;;;;;;;4.78;1.13;;;;;;;;;;5047212;28;20045;-81
2022/02/25 11:42:34;;;;;;;3.10;0.90;;;;;;;;;;5035179;28;20048;-81
2022/02/25 11:45:18;;;;;;;4.90;0.88;;;;;;;;;;5049483;28;20051;-82
2022/02/25 11:47:49;;;;;;;6.22;1.02;;;;;;;;;;5049631;28;20486;-82
2022/02/25 11:50:38;;;;;;;2.63;0.88;;;;;;;;;;5052262;28;20044;-82
2022/02/25 11:53:17;;;;;;;4.05;1.02;;;;;;;;;;5030366;28;20055;-81
2022/02/25 11:55:44;;;;;;;5.90;0.90;;;;;;;;;;5058475;28;20499;-82
2022/02/25 11:58:29;;;;;;;5.22;0.85;;;;;;;;;;5053321;28;20036;-81
2022/02/25 12:01:05;;;;;;;6.72;1.08;;;;;;;;;;5066486;28;20039;-82
2022/02/25 12:03:34;;;;;;;3.72;0.57;;;;;;;;;;5039578;28;20040;-81
2022/02/25 12:06:00;;;;;;;5.97;0.98;;;;;;;;;;5057400;28;20036;-81
2022/02/25 12:08:27;;;;;;;5.57;1.00;;;;;;;;;;5054085;28;20032;-82
2022/02/25 12:10:53;;;;;;;6.07;1.52;;;;;;;;;;5052445;28;20032;-82
2022/02/25 12:13:22;;;;;;;5.95;1.13;;;;;;;;;;5054407;28;20489;-82
2022/02/25 12:15:49;;;;;;;8.90;1.38;;;;;;;;;;5042604;28;20037;-81
2022/02/25 12:18:16;;;;;;;7.57;1.20;;;;;;;;;;5050352;28;20036;-82
2022/02/25 12:20:48;;;;;;;9.70;1.90;;;;;;;;;;5048242;28;20147;-82
2022/02/25 12:23:38;;;;;;;5.68;1.20;;;;;;;;;;5047694;28;20082;-82
2022/02/25 12:26:05;;;;;;;9.25;1.75;;;;;;;;;;5027968;28;20041;-82
2022/02/25 12:28:33;;;;;;;10.23;1.50;;;;;;;;;;5050191;28;20037;-85
2022/02/25 12:31:16;;;;;;;10.15;1.77;;;;;;;;;;5055891;28;20044;-82
2022/02/25 12:33:45;;;;;;;8.32;1.52;;;;;;;;;;5042582;28;20041;-82
2022/02/25 12:36:12;;;;;;;11.23;1.48;;;;;;;;;;5051719;28;20450;-81
2022/02/25 12:38:44;;;;;;;6.65;0.95;;;;;;;;;;5039776;28;20041;-85
2022/02/25 12:41:17;;;;;;;6.78;1.48;;;;;;;;;;5061574;28;20566;-85
2022/02/25 12:43:46;;;;;;;6.95;1.20;;;;;;;;;;5054689;28;20036;-85
2022/02/25 12:46:12;;;;;;;13.15;1.60;;;;;;;;;;5057018;28;20036;-84
2022/02/25 12:48:38;;;;;;;11.07;2.35;;;;;;;;;;5053230;28;20063;-86
2022/02/25 12:51:04;;;;;;;5.28;1.30;;;;;;;;;;5050930;28;20055;-86
2022/02/25 12:53:30;;;;;;;8.63;2.17;;;;;;;;;;5053059;28;20060;-86
2022/02/25 12:55:59;;;;;;;10.95;1.75;;;;;;;;;;5054767;28;20406;-86
2022/02/25 12:58:35;;;;;;;8.77;1.98;;;;;;;;;;5051732;28;20036;-86
2022/02/25 13:01:01;;;;;;;8.02;2.17;;;;;;;;;;5052091;28;20056;-85
2022/02/25 13:03:27;;;;;;;9.88;1.80;;;;;;;;;;5052366;28;20036;-87
2022/02/25 13:05:54;;;;;;;12.07;1.95;;;;;;;;;;5053687;28;20124;-87
2022/02/25 13:08:20;;;;;;;12.20;1.67;;;;;;;;;;5047181;28;20037;-85
2022/02/25 13:10:56;;;;;;;13.60;1.90;;;;;;;;;;5063284;28;20036;-85
2022/02/25 13:13:22;;;;;;;10.27;1.83;;;;;;;;;;5048240;28;20044;-86
2022/02/25 13:15:48;;;;;;;10.25;2.33;;;;;;;;;;5048164;28;20037;-85
2022/02/25 13:18:21;;;;;;;7.55;1.75;;;;;;;;;;5047838;28;20025;-85
2022/02/25 13:20:57;;;;;;;10.80;2.30;;;;;;;;;;5051680;28;20039;-84
2022/02/25 13:23:23;;;;;;;8.13;2.40;;;;;;;;;;5070507;28;20397;-85
2022/02/25 13:25:55;;;;;;;11.45;1.90;;;;;;;;;;5073116;28;20047;-84
2022/02/25 13:28:22;;;;;;;9.10;1.92;;;;;;;;;;5057956;28;20405;-83
2022/02/25 13:30:49;;;;;;;9.02;2.08;;;;;;;;;;5062014;28;20617;-84
2022/02/25 13:33:18;;;;;;;9.27;2.20;;;;;;;;;;5054670;28;20474;-83
2022/02/25 13:35:45;;;;;;;10.68;1.63;;;;;;;;;;5073666;28;20043;-84
2022/02/25 13:38:20;;;;;;;8.45;1.42;;;;;;;;;;5055390;28;20031;-84
2022/02/25 13:40:48;;;;;;;6.13;1.45;;;;;;;;;;5054940;28;20459;-83
2022/02/25 13:43:17;;;;;;;10.38;1.42;;;;;;;;;;5055402;28;20075;-83
2022/02/25 13:45:43;;;;;;;7.50;1.33;;;;;;;;;;5058311;28;20080;-83
2022/02/25 13:53:52;;;;;;;8.50;2.55;;;;;;;;;;5057080;28;20040;-84
2022/02/25 13:56:18;;;;;;;12.02;1.60;;;;;;;;;;5055347;28;20035;-84
2022/02/25 13:58:43;;;;;;;7.80;1.65;;;;;;;;;;5056661;28;20037;-84
2022/02/25 14:01:16;;;;;;;8.85;1.80;;;;;;;;;;5056583;28;20437;-84
2022/02/25 14:03:43;;;;;;;11.30;2.35;;;;;;;;;;5056418;28;20052;-85
2022/02/25 14:06:26;;;;;;;11.40;1.77;;;;;;;;;;5057630;28;20389;-83
2022/02/25 14:08:52;;;;;;;7.53;1.80;;;;;;;;;;5052962;28;20045;-85
2022/02/25 14:11:32;;;;;;;9.13;2.33;;;;;;;;;;5055027;28;20047;-84
2022/02/25 14:13:59;;;;;;;10.43;2.20;;;;;;;;;;5038398;28;20032;-84
2022/02/25 14:16:25;;;;;;;14.07;2.65;;;;;;;;;;5055796;28;20045;-84
2022/02/25 14:18:51;;;;;;;15.18;2.97;;;;;;;;;;5051998;28;20044;-83
2022/02/25 14:21:30;;;;;;;11.70;2.60;;;;;;;;;;5069180;28;20043;-84
2022/02/25 14:23:56;;;;;;;10.02;1.90;;;;;;;;;;5045314;28;20095;-84
2022/02/25 14:26:26;;;;;;;12.98;1.80;;;;;;;;;;5051619;28;20036;-84
2022/02/25 14:28:52;;;;;;;10.38;1.70;;;;;;;;;;5069755;28;20094;-83
2022/02/25 14:31:24;;;;;;;7.90;1.63;;;;;;;;;;5056672;28;20033;-85
2022/02/25 14:33:50;;;;;;;9.68;1.85;;;;;;;;;;5053724;28;20080;-85
2022/02/25 14:36:23;;;;;;;9.52;1.50;;;;;;;;;;5054585;28;20066;-84
2022/02/25 14:38:55;;;;;;;7.40;1.40;;;;;;;;;;5057510;28;20127;-84
2022/02/25 14:41:21;;;;;;;8.30;2.17;;;;;;;;;;5056207;28;20054;-84
2022/02/25 14:43:47;;;;;;;11.20;1.42;;;;;;;;;;5055751;28;20045;-84
2022/02/25 14:46:14;;;;;;;10.15;1.42;;;;;;;;;;5057122;28;20037;-84
2022/02/25 14:48:40;;;;;;;10.27;1.85;;;;;;;;;;5054643;28;20036;-83